createdAt,value
2023-03-17T00:04:46.609Z,96.40
2023-03-17T00:10:51.132Z,92.90
2023-03-17T00:13:52.840Z,104.20
2023-03-17T00:16:54.360Z,100.00
2023-03-17T00:19:56.099Z,98.00
2023-03-17T00:22:59.355Z,86.40
2023-03-17T00:26:00.957Z,93.40
2023-03-17T00:29:02.571Z,91.40
2023-03-17T00:32:04.415Z,88.40
2023-03-17T00:38:17.518Z,93.30
2023-03-17T00:41:19.832Z,89.70
2023-03-17T00:44:21.427Z,92.50
2023-03-17T00:47:22.934Z,88.90
2023-03-17T00:50:28.609Z,85.10
2023-03-17T00:53:30.568Z,86.80
2023-03-17T00:59:39.451Z,76.80
2023-03-17T01:02:40.952Z,70.20
2023-03-17T01:05:42.723Z,64.90
2023-03-17T01:08:44.452Z,64.50
2023-03-17T01:11:46.621Z,64.90
2023-03-17T01:14:48.232Z,61.90
2023-03-17T01:17:50.717Z,74.10
2023-03-17T01:20:52.348Z,62.40
2023-03-17T01:23:55.874Z,74.00
2023-03-17T01:26:57.910Z,74.80
2023-03-17T01:29:59.446Z,65.80
2023-03-17T01:33:01.319Z,80.70
2023-03-17T01:36:03.089Z,69.40
2023-03-17T01:42:06.785Z,51.20
2023-03-17T01:45:47.498Z,60.80
2023-03-17T01:49:24.777Z,58.30
2023-03-17T01:52:27.189Z,70.00
2023-03-17T01:55:28.795Z,71.50
2023-03-17T01:58:31.469Z,73.30
2023-03-17T02:01:41.660Z,67.40
2023-03-17T02:04:43.238Z,64.90
2023-03-17T02:07:45.132Z,71.70
2023-03-17T02:10:48.554Z,65.00
2023-03-17T02:13:50.325Z,66.10
2023-03-17T02:16:52.037Z,70.40
2023-03-17T02:19:54.591Z,64.80
2023-03-17T02:22:56.608Z,62.60
2023-03-17T02:25:58.277Z,68.70
2023-03-17T02:29:00.129Z,71.30
2023-03-17T02:32:02.662Z,67.00
2023-03-17T02:35:06.882Z,76.40
2023-03-17T02:38:08.673Z,71.30
2023-03-17T02:41:10.630Z,74.70
2023-03-17T02:44:12.303Z,66.90
2023-03-17T02:47:14.692Z,72.50
2023-03-17T02:50:22.437Z,78.80
2023-03-17T02:53:23.990Z,72.90
2023-03-17T02:56:25.590Z,73.50
2023-03-17T02:59:27.557Z,67.50
2023-03-17T03:05:31.005Z,69.20
2023-03-17T03:08:32.612Z,67.60
2023-03-17T03:11:34.404Z,71.80
2023-03-17T03:17:37.820Z,67.10
2023-03-17T03:20:42.796Z,73.60
2023-03-17T03:23:44.495Z,67.90
2023-03-17T03:26:46.082Z,101.60
2023-03-17T03:29:47.642Z,97.30
2023-03-17T03:32:49.489Z,96.50
2023-03-17T03:38:52.659Z,87.10
2023-03-17T03:41:54.503Z,85.30
2023-03-17T03:47:57.590Z,68.50
2023-03-17T03:51:00.670Z,69.30
2023-03-17T03:54:02.231Z,90.20
2023-03-17T03:57:03.965Z,90.40
2023-03-17T04:00:06.890Z,93.20
2023-03-17T04:03:08.896Z,99.50
2023-03-17T04:06:10.588Z,93.70
2023-03-17T04:09:12.136Z,79.10
2023-03-17T04:12:13.718Z,80.40
2023-03-17T04:15:17.050Z,76.20
2023-03-17T04:18:18.598Z,85.30
2023-03-17T04:21:20.186Z,88.10
2023-03-17T04:24:21.830Z,78.50
2023-03-17T04:27:23.714Z,81.60
2023-03-17T04:33:27.054Z,80.00
2023-03-17T04:36:28.792Z,71.10
2023-03-17T04:39:30.340Z,75.50
2023-03-17T04:42:31.906Z,68.10
2023-03-17T04:45:33.598Z,73.70
2023-03-17T04:48:35.614Z,77.50
2023-03-17T04:51:37.219Z,69.00
2023-03-17T04:54:38.928Z,77.70
2023-03-17T04:57:40.710Z,74.90
2023-03-17T05:00:43.006Z,76.90
2023-03-17T05:03:44.601Z,76.10
2023-03-17T05:06:46.387Z,73.90
2023-03-17T05:09:47.993Z,86.40
2023-03-17T05:12:49.557Z,67.80
2023-03-17T05:15:52.583Z,76.20
2023-03-17T05:18:57.341Z,84.20
2023-03-17T05:21:59.182Z,79.30
2023-03-17T05:28:03.030Z,80.90
2023-03-17T05:31:04.755Z,66.90
2023-03-17T05:34:06.573Z,69.00
2023-03-17T05:37:08.300Z,101.30
2023-03-17T05:40:11.576Z,93.20
2023-03-17T05:43:13.220Z,83.00
2023-03-17T05:46:15.295Z,84.80
2023-03-17T05:49:16.992Z,75.00
2023-03-17T05:52:18.751Z,72.70
2023-03-17T05:55:20.419Z,70.40
2023-03-17T05:58:22.065Z,66.20
2023-03-17T06:01:23.608Z,71.30
2023-03-17T06:04:25.282Z,74.60
2023-03-17T06:07:27.023Z,74.70
2023-03-17T06:10:30.359Z,93.80
2023-03-17T06:13:32.395Z,71.20
2023-03-17T06:16:34.012Z,74.50
2023-03-17T06:19:35.756Z,71.10
2023-03-17T06:22:37.455Z,71.50
2023-03-17T06:25:39.193Z,67.80
2023-03-17T06:28:40.797Z,74.80
2023-03-17T06:31:42.401Z,69.70
2023-03-17T06:34:44.313Z,66.20
2023-03-17T06:37:46.120Z,66.40
2023-03-17T06:43:49.331Z,65.40
2023-03-17T06:49:53.645Z,66.40
2023-03-17T06:52:55.247Z,58.10
2023-03-17T06:58:59.029Z,59.50
2023-03-17T07:02:00.563Z,59.70
2023-03-17T07:05:02.318Z,57.50
2023-03-17T07:08:08.895Z,58.30
2023-03-17T07:11:10.525Z,57.20
2023-03-17T07:14:12.196Z,53.30
2023-03-17T07:17:14.671Z,52.50
2023-03-17T07:20:16.555Z,55.60
2023-03-17T07:23:22.305Z,53.60
2023-03-17T07:26:23.921Z,53.20
2023-03-17T07:29:25.566Z,54.10
2023-03-17T07:32:27.209Z,50.40
2023-03-17T07:35:29.473Z,52.00
2023-03-17T07:38:31.275Z,48.60
2023-03-17T07:41:33.060Z,48.70
2023-03-17T07:44:34.627Z,50.00
2023-03-17T07:47:36.233Z,48.40
2023-03-17T07:50:38.144Z,51.00
2023-03-17T07:53:39.995Z,48.70
2023-03-17T07:56:41.972Z,47.90
2023-03-17T07:59:43.573Z,44.00
2023-03-17T08:02:46.946Z,46.50
2023-03-17T08:05:53.901Z,42.60
2023-03-17T08:08:55.499Z,40.40
2023-03-17T08:11:56.999Z,35.90
2023-03-17T08:14:58.681Z,31.40
2023-03-17T08:18:00.356Z,37.20
2023-03-17T08:21:02.228Z,39.30
2023-03-17T08:24:03.914Z,35.30
2023-03-17T08:27:05.503Z,32.30
2023-03-17T08:30:07.937Z,30.20
2023-03-17T08:33:09.549Z,31.90
2023-03-17T08:36:11.228Z,27.80
2023-03-17T08:39:13.063Z,24.60
2023-03-17T08:42:14.734Z,25.80
2023-03-17T08:45:17.212Z,25.80
2023-03-17T08:48:20.135Z,24.60
2023-03-17T08:51:24.603Z,27.50
2023-03-17T08:54:26.404Z,25.60
2023-03-17T08:57:28.260Z,25.50
2023-03-17T09:00:30.185Z,24.50
2023-03-17T09:03:33.545Z,21.50
2023-03-17T09:06:35.179Z,23.60
2023-03-17T09:09:36.878Z,23.20
2023-03-17T09:12:38.429Z,23.00
2023-03-17T09:15:40.355Z,20.70
2023-03-17T09:18:42.547Z,22.30
2023-03-17T09:21:44.546Z,20.90
2023-03-17T09:24:46.238Z,21.00
2023-03-17T09:27:47.799Z,19.90
2023-03-17T09:30:49.562Z,21.80
2023-03-17T09:33:51.203Z,19.40
2023-03-17T09:36:56.041Z,19.00
2023-03-17T09:39:57.549Z,20.00
2023-03-17T09:43:21.175Z,21.50
2023-03-17T09:46:40.807Z,17.30
2023-03-17T09:49:51.556Z,20.70
2023-03-17T09:52:55.934Z,18.50
2023-03-17T09:55:58.442Z,18.30
2023-03-17T09:59:05.027Z,19.10
2023-03-17T10:02:18.669Z,18.80
2023-03-17T10:05:23.819Z,18.40
2023-03-17T10:08:32.186Z,18.20
2023-03-17T10:11:48.550Z,19.00
2023-03-17T10:15:05.863Z,17.30
2023-03-17T10:18:12.889Z,18.40
2023-03-17T10:21:18.943Z,17.50
2023-03-17T10:24:21.605Z,19.50
2023-03-17T10:27:23.289Z,19.80
2023-03-17T10:30:24.996Z,19.20
2023-03-17T10:33:26.700Z,19.80
2023-03-17T10:36:37.372Z,18.90
2023-03-17T10:39:45.546Z,21.50
2023-03-17T10:43:02.373Z,19.50
2023-03-17T10:46:24.741Z,19.20
2023-03-17T10:49:26.782Z,20.60
2023-03-17T10:52:30.981Z,23.00
2023-03-17T10:55:44.044Z,17.40
2023-03-17T10:58:49.095Z,19.30
2023-03-17T11:01:53.760Z,22.10
2023-03-17T11:05:02.811Z,18.20
2023-03-17T11:08:17.666Z,19.00
2023-03-17T11:11:31.067Z,20.00
2023-03-17T11:14:32.942Z,18.20
2023-03-17T11:17:53.595Z,21.90
2023-03-17T11:21:22.652Z,18.20
2023-03-17T11:24:32.230Z,19.70
2023-03-17T11:27:43.603Z,20.20
2023-03-17T11:31:06.778Z,19.40
2023-03-17T11:34:13.291Z,18.70
2023-03-17T11:37:26.125Z,20.60
2023-03-17T11:40:49.421Z,16.70
2023-03-17T11:44:00.975Z,20.90
2023-03-17T11:47:19.284Z,17.20
2023-03-17T11:50:27.459Z,18.90
2023-03-17T11:53:51.070Z,19.60
2023-03-17T11:56:56.257Z,18.30
2023-03-17T12:00:06.639Z,19.00
2023-03-17T12:03:16.814Z,17.90
2023-03-17T12:06:30.183Z,17.60
2023-03-17T12:09:37.144Z,20.00
2023-03-17T12:12:41.644Z,17.30
2023-03-17T12:15:48.291Z,21.10
2023-03-17T12:19:01.212Z,19.50
2023-03-17T12:22:22.958Z,18.30
2023-03-17T12:25:30.281Z,17.40
2023-03-17T12:28:46.888Z,15.80
2023-03-17T12:31:53.675Z,17.90
2023-03-17T12:35:00.551Z,16.10
2023-03-17T12:38:08.629Z,14.70
2023-03-17T12:41:15.394Z,14.90
2023-03-17T12:44:59.818Z,16.60
2023-03-17T12:48:23.564Z,15.90
2023-03-17T12:51:56.462Z,15.90
2023-03-17T12:55:00.779Z,16.30
2023-03-17T12:58:27.013Z,19.10
2023-03-17T13:01:34.750Z,18.00
2023-03-17T13:04:36.673Z,18.00
2023-03-17T13:07:56.386Z,16.00
2023-03-17T13:11:36.271Z,19.10
2023-03-17T13:14:47.411Z,17.50
2023-03-17T13:17:49.881Z,15.60
2023-03-17T13:20:57.381Z,14.80
2023-03-17T13:24:22.908Z,15.10
2023-03-17T13:27:30.602Z,14.30
2023-03-17T13:30:34.959Z,15.50
2023-03-17T13:33:44.429Z,16.20
2023-03-17T13:37:02.906Z,18.50
2023-03-17T13:40:27.701Z,17.30
2023-03-17T13:43:39.673Z,16.10
2023-03-17T13:46:46.586Z,19.20
2023-03-17T13:49:49.546Z,18.10
2023-03-17T13:53:17.769Z,16.40
2023-03-17T13:56:34.519Z,17.10
2023-03-17T13:59:39.373Z,14.30
2023-03-17T14:02:42.672Z,14.30
2023-03-17T14:05:51.885Z,15.50
2023-03-17T14:08:57.000Z,13.90
2023-03-17T14:12:00.344Z,13.60
2023-03-17T14:15:28.405Z,16.00
2023-03-17T14:18:36.774Z,16.10
2023-03-17T14:21:38.406Z,13.60
2023-03-17T14:24:40.158Z,14.60
2023-03-17T14:27:42.114Z,13.90
2023-03-17T14:30:52.468Z,14.50
2023-03-17T14:33:59.000Z,13.90
2023-03-17T14:37:04.623Z,13.80
2023-03-17T14:40:21.480Z,17.30
2023-03-17T14:43:23.107Z,17.80
2023-03-17T14:46:37.965Z,14.70
2023-03-17T14:49:39.814Z,16.40
2023-03-17T14:52:41.547Z,17.20
2023-03-17T14:55:43.660Z,14.40
2023-03-17T14:58:46.401Z,16.90
2023-03-17T15:01:48.504Z,16.90
2023-03-17T15:04:56.274Z,17.90
2023-03-17T15:07:57.835Z,18.30
2023-03-17T15:11:01.037Z,19.40
2023-03-17T15:14:28.165Z,21.80
2023-03-17T15:17:35.421Z,25.10
2023-03-17T15:20:37.114Z,21.20
2023-03-17T15:23:39.846Z,18.50
2023-03-17T15:26:41.752Z,18.20
2023-03-17T15:29:43.805Z,15.80
2023-03-17T15:32:51.494Z,19.60
2023-03-17T15:35:53.069Z,17.10
2023-03-17T15:38:54.826Z,16.30
2023-03-17T15:41:56.335Z,18.80
2023-03-17T15:44:58.328Z,15.30
2023-03-17T15:47:59.930Z,18.10
2023-03-17T15:51:02.389Z,16.70
2023-03-17T15:54:04.457Z,17.60
2023-03-17T15:57:06.056Z,20.20
2023-03-17T16:00:08.543Z,20.30
2023-03-17T16:03:26.519Z,19.90
2023-03-17T16:06:28.117Z,19.00
2023-03-17T16:09:29.693Z,17.30
2023-03-17T16:12:31.192Z,21.80
2023-03-17T16:15:34.819Z,18.20
2023-03-17T16:18:37.435Z,17.50
2023-03-17T16:21:39.049Z,20.50
2023-03-17T16:24:40.768Z,19.00
2023-03-17T16:27:42.322Z,19.10
2023-03-17T16:33:46.100Z,19.00
2023-03-17T16:36:48.745Z,21.90
2023-03-17T16:39:50.516Z,21.30
2023-03-17T16:45:55.846Z,17.00
2023-03-17T16:48:57.486Z,20.60
2023-03-17T16:55:00.631Z,20.50
2023-03-17T16:58:18.964Z,21.40
2023-03-17T17:01:24.024Z,21.30
2023-03-17T17:04:25.802Z,22.50
2023-03-17T17:07:27.863Z,49.60
2023-03-17T17:10:31.799Z,148.00
2023-03-17T17:13:33.927Z,59.90
2023-03-17T17:16:37.164Z,44.30
2023-03-17T17:19:38.852Z,31.20
2023-03-17T17:25:42.508Z,30.90
2023-03-17T17:29:02.965Z,24.20
2023-03-17T17:32:04.765Z,25.00
2023-03-17T17:35:07.664Z,29.40
2023-03-17T17:38:19.042Z,27.80
2023-03-17T17:41:20.696Z,34.70
2023-03-17T17:47:23.990Z,27.70
2023-03-17T17:50:29.277Z,28.50
2023-03-17T17:53:30.971Z,31.20
2023-03-17T17:59:34.068Z,35.40
2023-03-17T18:02:35.738Z,32.90
2023-03-17T18:08:39.172Z,44.20
2023-03-17T18:11:41.217Z,37.20
2023-03-17T18:14:42.821Z,37.80
2023-03-17T18:17:44.317Z,40.00
2023-03-17T18:20:45.920Z,35.70
2023-03-17T18:23:47.593Z,38.40
2023-03-17T18:29:50.740Z,38.00
2023-03-17T18:35:55.210Z,36.00
2023-03-17T18:38:56.871Z,33.90
2023-03-17T18:44:59.966Z,32.40
2023-03-17T18:48:01.877Z,31.50
2023-03-17T18:51:03.628Z,30.90
2023-03-17T18:57:06.981Z,45.30
2023-03-17T19:00:11.637Z,49.40
2023-03-17T19:03:13.393Z,47.90
2023-03-17T19:06:17.898Z,41.80
2023-03-17T19:09:19.453Z,42.20
2023-03-17T19:12:21.070Z,39.40
2023-03-17T19:15:23.661Z,43.40
2023-03-17T19:21:27.129Z,60.40
2023-03-17T19:27:30.216Z,51.30
2023-03-17T19:30:32.293Z,51.40
2023-03-17T19:33:34.163Z,43.70
2023-03-17T19:39:37.964Z,36.60
2023-03-17T19:45:41.054Z,33.60
2023-03-17T19:48:42.711Z,40.10
2023-03-17T19:51:44.365Z,34.40
2023-03-17T19:54:46.210Z,33.40
2023-03-17T20:00:50.464Z,30.20
2023-03-17T20:03:52.034Z,33.10
2023-03-17T20:06:53.613Z,34.80
2023-03-17T20:09:55.137Z,35.40
2023-03-17T20:15:58.608Z,32.10
2023-03-17T20:22:02.380Z,34.40
2023-03-17T20:25:05.373Z,34.10
2023-03-17T20:28:06.938Z,36.20
2023-03-17T20:31:08.861Z,34.60
2023-03-17T20:34:10.900Z,34.70
2023-03-17T20:37:12.606Z,36.60
2023-03-17T20:40:14.195Z,37.70
2023-03-17T20:43:16.064Z,36.00
2023-03-17T20:46:22.460Z,38.10
2023-03-17T20:49:24.458Z,40.00
2023-03-17T20:52:29.985Z,36.60
2023-03-17T20:55:31.946Z,34.50
2023-03-17T21:01:36.942Z,40.50
2023-03-17T21:04:38.488Z,35.20
2023-03-17T21:07:40.096Z,36.40
2023-03-17T21:10:41.740Z,38.70
2023-03-17T21:13:43.410Z,35.40
2023-03-17T21:16:44.933Z,31.90
2023-03-17T21:19:46.608Z,32.90
2023-03-17T21:22:48.753Z,36.20
2023-03-17T21:25:56.483Z,36.30
2023-03-17T21:28:58.094Z,34.10
2023-03-17T21:32:01.225Z,37.20
2023-03-17T21:35:03.056Z,31.50
2023-03-17T21:41:32.316Z,34.30
2023-03-17T21:44:33.920Z,37.00
2023-03-17T21:47:35.624Z,35.20
2023-03-17T21:50:37.233Z,38.10
2023-03-17T21:53:39.153Z,37.20
2023-03-17T21:56:41.064Z,38.20
2023-03-17T21:59:42.644Z,37.00
2023-03-17T22:02:44.176Z,38.30
2023-03-17T22:05:45.878Z,42.30
2023-03-17T22:08:47.864Z,55.30
2023-03-17T22:11:49.440Z,61.90
2023-03-17T22:14:52.885Z,67.30
2023-03-17T22:17:54.392Z,75.90
2023-03-17T22:20:57.092Z,95.70
2023-03-17T22:23:58.637Z,89.10
2023-03-17T22:27:00.345Z,75.80
2023-03-17T22:30:01.970Z,67.10
2023-03-17T22:33:03.639Z,60.40
2023-03-17T22:36:06.411Z,56.00
2023-03-17T22:39:07.984Z,61.60
2023-03-17T22:42:09.771Z,56.10
2023-03-17T22:48:14.902Z,45.80
2023-03-17T22:51:22.327Z,45.60
2023-03-17T22:54:23.921Z,40.90
2023-03-17T22:57:25.439Z,36.30
2023-03-17T23:00:27.068Z,32.60
2023-03-17T23:03:28.749Z,36.00
2023-03-17T23:06:30.365Z,34.10
2023-03-17T23:09:32.489Z,36.10
2023-03-17T23:12:35.638Z,36.70
2023-03-17T23:15:37.537Z,42.10
2023-03-17T23:21:40.852Z,38.90
2023-03-17T23:27:44.240Z,37.90
2023-03-17T23:30:46.212Z,41.30
2023-03-17T23:33:49.374Z,40.70
2023-03-17T23:36:50.969Z,37.30
2023-03-17T23:39:52.786Z,41.70
2023-03-17T23:45:55.919Z,43.10
2023-03-17T23:48:57.580Z,44.40
2023-03-17T23:51:59.180Z,39.40
2023-03-17T23:55:00.742Z,39.30
2023-03-17T23:58:02.656Z,50.50
